sensor_id;sensor_type;location;lat;lon;timestamp;pressure;altitude;pressure_sealevel;temperature;humidity
26865;BME280;40618;51.166;10.322;2023-04-04T00:02:02;98578.34;;;0.93;61.34
26865;BME280;40618;51.166;10.322;2023-04-04T00:04:28;98570.66;;;0.92;61.12
26865;BME280;40618;51.166;10.322;2023-04-04T00:06:54;98576.59;;;0.92;61.19
26865;BME280;40618;51.166;10.322;2023-04-04T00:09:19;98572.34;;;0.93;61.62
26865;BME280;40618;51.166;10.322;2023-04-04T00:11:45;98566.38;;;0.91;61.09
26865;BME280;40618;51.166;10.322;2023-04-04T00:14:12;98569.75;;;0.91;61.49
26865;BME280;40618;51.166;10.322;2023-04-04T00:16:38;98581.69;;;0.92;61.61
26865;BME280;40618;51.166;10.322;2023-04-04T00:19:03;98567.25;;;0.93;61.40
26865;BME280;40618;51.166;10.322;2023-04-04T00:21:29;98569.75;;;0.91;61.78
26865;BME280;40618;51.166;10.322;2023-04-04T00:23:56;98576.53;;;0.89;61.73
26865;BME280;40618;51.166;10.322;2023-04-04T00:26:23;98578.22;;;0.90;61.19
26865;BME280;40618;51.166;10.322;2023-04-04T00:28:49;98583.28;;;0.89;61.16
26865;BME280;40618;51.166;10.322;2023-04-04T00:31:14;98577.31;;;0.87;61.55
26865;BME280;40618;51.166;10.322;2023-04-04T00:33:40;98573.84;;;0.84;61.11
26865;BME280;40618;51.166;10.322;2023-04-04T00:36:06;98574.75;;;0.87;61.45
26865;BME280;40618;51.166;10.322;2023-04-04T00:38:31;98577.44;;;0.93;61.78
26865;BME280;40618;51.166;10.322;2023-04-04T00:40:57;98574.09;;;0.94;61.71
26865;BME280;40618;51.166;10.322;2023-04-04T00:43:24;98568.84;;;0.88;61.24
26865;BME280;40618;51.166;10.322;2023-04-04T00:45:51;98573.06;;;0.87;61.54
26865;BME280;40618;51.166;10.322;2023-04-04T00:48:17;98571.31;;;0.86;61.83
26865;BME280;40618;51.166;10.322;2023-04-04T00:50:44;98573.88;;;0.86;62.15
26865;BME280;40618;51.166;10.322;2023-04-04T00:53:09;98575.59;;;0.87;61.64
26865;BME280;40618;51.166;10.322;2023-04-04T00:55:37;98565.44;;;0.89;61.85
26865;BME280;40618;51.166;10.322;2023-04-04T00:58:03;98572.97;;;0.84;61.27
26865;BME280;40618;51.166;10.322;2023-04-04T01:00:32;98571.19;;;0.80;61.27
26865;BME280;40618;51.166;10.322;2023-04-04T01:02:59;98570.22;;;0.76;61.61
26865;BME280;40618;51.166;10.322;2023-04-04T01:05:25;98573.69;;;0.78;61.58
26865;BME280;40618;51.166;10.322;2023-04-04T01:07:51;98564.31;;;0.77;61.28
26865;BME280;40618;51.166;10.322;2023-04-04T01:10:17;98562.56;;;0.76;61.73
26865;BME280;40618;51.166;10.322;2023-04-04T01:12:43;98566.84;;;0.77;61.23
26865;BME280;40618;51.166;10.322;2023-04-04T01:15:09;98572.66;;;0.72;61.66
26865;BME280;40618;51.166;10.322;2023-04-04T01:17:35;98566.72;;;0.71;61.77
26865;BME280;40618;51.166;10.322;2023-04-04T01:20:06;98564.19;;;0.73;61.53
26865;BME280;40618;51.166;10.322;2023-04-04T01:22:45;98559.13;;;0.74;61.56
26865;BME280;40618;51.166;10.322;2023-04-04T01:25:13;98560.06;;;0.78;61.54
26865;BME280;40618;51.166;10.322;2023-04-04T01:27:40;98553.28;;;0.78;61.88
26865;BME280;40618;51.166;10.322;2023-04-04T01:30:06;98553.28;;;0.78;61.94
26865;BME280;40618;51.166;10.322;2023-04-04T01:32:54;98557.47;;;0.76;61.47
26865;BME280;40618;51.166;10.322;2023-04-04T01:35:34;98549.75;;;0.73;61.91
26865;BME280;40618;51.166;10.322;2023-04-04T01:38:19;98547.25;;;0.75;61.99
26865;BME280;40618;51.166;10.322;2023-04-04T01:40:54;98548.13;;;0.75;62.36
26865;BME280;40618;51.166;10.322;2023-04-04T01:43:24;98542.94;;;0.74;61.70
26865;BME280;40618;51.166;10.322;2023-04-04T01:45:50;98542.03;;;0.70;62.24
26865;BME280;40618;51.166;10.322;2023-04-04T01:48:15;98537.78;;;0.71;61.74
26865;BME280;40618;51.166;10.322;2023-04-04T01:50:41;98530.91;;;0.68;62.33
26865;BME280;40618;51.166;10.322;2023-04-04T01:53:07;98530.88;;;0.66;61.84
26865;BME280;40618;51.166;10.322;2023-04-04T01:55:32;98531.63;;;0.62;61.96
26865;BME280;40618;51.166;10.322;2023-04-04T01:57:58;98531.41;;;0.55;62.43
26865;BME280;40618;51.166;10.322;2023-04-04T02:00:23;98531.34;;;0.53;61.82
26865;BME280;40618;51.166;10.322;2023-04-04T02:02:49;98529.59;;;0.50;62.30
26865;BME280;40618;51.166;10.322;2023-04-04T02:05:15;98527.03;;;0.50;61.92
26865;BME280;40618;51.166;10.322;2023-04-04T02:07:46;98534.75;;;0.52;62.31
26865;BME280;40618;51.166;10.322;2023-04-04T02:10:13;98534.75;;;0.52;62.63
26865;BME280;40618;51.166;10.322;2023-04-04T02:12:39;98536.34;;;0.48;61.83
26865;BME280;40618;51.166;10.322;2023-04-04T02:15:05;98531.97;;;0.44;62.21
26865;BME280;40618;51.166;10.322;2023-04-04T02:17:31;98527.69;;;0.43;62.12
26865;BME280;40618;51.166;10.322;2023-04-04T02:19:57;98528.59;;;0.44;62.13
26865;BME280;40618;51.166;10.322;2023-04-04T02:22:22;98526.03;;;0.44;62.05
26865;BME280;40618;51.166;10.322;2023-04-04T02:24:48;98518.25;;;0.39;62.24
26865;BME280;40618;51.166;10.322;2023-04-04T02:27:13;98518.22;;;0.38;62.19
26865;BME280;40618;51.166;10.322;2023-04-04T02:29:39;98518.16;;;0.36;62.80
26865;BME280;40618;51.166;10.322;2023-04-04T02:32:05;98519.78;;;0.34;62.39
26865;BME280;40618;51.166;10.322;2023-04-04T02:34:30;98514.59;;;0.29;62.47
26865;BME280;40618;51.166;10.322;2023-04-04T02:36:56;98514.50;;;0.26;62.83
26865;BME280;40618;51.166;10.322;2023-04-04T02:39:22;98507.47;;;0.17;62.08
26865;BME280;40618;51.166;10.322;2023-04-04T02:41:48;98516.69;;;0.12;62.74
26865;BME280;40618;51.166;10.322;2023-04-04T02:44:14;98510.75;;;0.13;63.01
26865;BME280;40618;51.166;10.322;2023-04-04T02:46:39;98509.06;;;0.14;62.83
26865;BME280;40618;51.166;10.322;2023-04-04T02:49:06;98505.75;;;0.16;63.35
26865;BME280;40618;51.166;10.322;2023-04-04T02:51:32;98503.09;;;0.13;62.56
26865;BME280;40618;51.166;10.322;2023-04-04T02:53:58;98501.41;;;0.12;63.08
26865;BME280;40618;51.166;10.322;2023-04-04T02:56:23;98492.06;;;0.13;62.69
26865;BME280;40618;51.166;10.322;2023-04-04T02:58:49;98493.84;;;0.15;63.01
26865;BME280;40618;51.166;10.322;2023-04-04T03:01:15;98497.19;;;0.14;62.63
26865;BME280;40618;51.166;10.322;2023-04-04T03:03:40;98486.94;;;0.11;63.31
26865;BME280;40618;51.166;10.322;2023-04-04T03:06:06;98484.41;;;0.13;63.11
26865;BME280;40618;51.166;10.322;2023-04-04T03:08:32;98487.78;;;0.12;63.44
26865;BME280;40618;51.166;10.322;2023-04-04T03:10:59;98486.69;;;0.04;62.47
26865;BME280;40618;51.166;10.322;2023-04-04T03:13:25;98483.88;;;-0.06;62.77
26865;BME280;40618;51.166;10.322;2023-04-04T03:15:58;98484.75;;;-0.05;62.75
26865;BME280;40618;51.166;10.322;2023-04-04T03:18:27;98488.97;;;-0.06;63.23
26865;BME280;40618;51.166;10.322;2023-04-04T03:20:53;98481.34;;;-0.06;62.76
26865;BME280;40618;51.166;10.322;2023-04-04T03:23:18;98482.09;;;-0.08;63.05
26865;BME280;40618;51.166;10.322;2023-04-04T03:25:44;98477.97;;;-0.05;62.95
26865;BME280;40618;51.166;10.322;2023-04-04T03:28:10;98477.13;;;-0.05;63.00
26865;BME280;40618;51.166;10.322;2023-04-04T03:30:37;98483.00;;;-0.08;63.61
26865;BME280;40618;51.166;10.322;2023-04-04T03:33:05;98476.94;;;-0.11;63.58
26865;BME280;40618;51.166;10.322;2023-04-04T03:35:41;98470.00;;;-0.17;63.18
26865;BME280;40618;51.166;10.322;2023-04-04T03:38:07;98474.31;;;-0.14;63.27
26865;BME280;40618;51.166;10.322;2023-04-04T03:40:34;98470.06;;;-0.14;63.55
26865;BME280;40618;51.166;10.322;2023-04-04T03:43:00;98468.28;;;-0.17;63.55
26865;BME280;40618;51.166;10.322;2023-04-04T03:45:27;98469.19;;;-0.16;63.17
26865;BME280;40618;51.166;10.322;2023-04-04T03:47:56;98464.91;;;-0.17;63.91
26865;BME280;40618;51.166;10.322;2023-04-04T03:50:22;98466.56;;;-0.19;63.68
26865;BME280;40618;51.166;10.322;2023-04-04T03:52:48;98466.56;;;-0.19;63.55
26865;BME280;40618;51.166;10.322;2023-04-04T03:55:13;98457.91;;;-0.24;63.83
26865;BME280;40618;51.166;10.322;2023-04-04T03:57:39;98459.53;;;-0.26;63.46
26865;BME280;40618;51.166;10.322;2023-04-04T04:00:05;98451.09;;;-0.25;63.58
26865;BME280;40618;51.166;10.322;2023-04-04T04:02:31;98457.84;;;-0.27;63.77
26865;BME280;40618;51.166;10.322;2023-04-04T04:04:56;98457.63;;;-0.33;63.97
26865;BME280;40618;51.166;10.322;2023-04-04T04:07:22;98448.16;;;-0.39;63.73
26865;BME280;40618;51.166;10.322;2023-04-04T04:09:47;98455.81;;;-0.38;63.90
26865;BME280;40618;51.166;10.322;2023-04-04T04:12:13;98449.03;;;-0.37;63.88
26865;BME280;40618;51.166;10.322;2023-04-04T04:14:39;98444.84;;;-0.37;64.05
26865;BME280;40618;51.166;10.322;2023-04-04T04:17:04;98449.16;;;-0.34;64.30
26865;BME280;40618;51.166;10.322;2023-04-04T04:19:30;98446.59;;;-0.34;63.48
26865;BME280;40618;51.166;10.322;2023-04-04T04:21:56;98455.91;;;-0.35;63.96
26865;BME280;40618;51.166;10.322;2023-04-04T04:24:21;98449.06;;;-0.36;64.06
26865;BME280;40618;51.166;10.322;2023-04-04T04:26:47;98448.19;;;-0.38;64.03
26865;BME280;40618;51.166;10.322;2023-04-04T04:29:12;98454.09;;;-0.39;64.03
26865;BME280;40618;51.166;10.322;2023-04-04T04:31:38;98439.63;;;-0.40;64.04
26865;BME280;40618;51.166;10.322;2023-04-04T04:34:05;98439.59;;;-0.41;63.89
26865;BME280;40618;51.166;10.322;2023-04-04T04:36:31;98434.50;;;-0.41;63.72
26865;BME280;40618;51.166;10.322;2023-04-04T04:38:57;98430.09;;;-0.47;64.38
26865;BME280;40618;51.166;10.322;2023-04-04T04:41:22;98436.84;;;-0.49;64.26
26865;BME280;40618;51.166;10.322;2023-04-04T04:43:48;98431.59;;;-0.54;64.03
26865;BME280;40618;51.166;10.322;2023-04-04T04:46:13;98438.38;;;-0.54;64.67
26865;BME280;40618;51.166;10.322;2023-04-04T04:48:39;98432.47;;;-0.53;64.38
26865;BME280;40618;51.166;10.322;2023-04-04T04:51:05;98432.38;;;-0.56;64.08
26865;BME280;40618;51.166;10.322;2023-04-04T04:53:30;98428.94;;;-0.58;64.15
26865;BME280;40618;51.166;10.322;2023-04-04T04:55:56;98436.56;;;-0.58;64.37
26865;BME280;40618;51.166;10.322;2023-04-04T04:58:22;98434.78;;;-0.61;64.13
26865;BME280;40618;51.166;10.322;2023-04-04T05:00:48;98442.38;;;-0.62;64.16
26865;BME280;40618;51.166;10.322;2023-04-04T05:03:14;98442.34;;;-0.64;64.56
26865;BME280;40618;51.166;10.322;2023-04-04T05:05:41;98455.00;;;-0.65;64.11
26865;BME280;40618;51.166;10.322;2023-04-04T05:08:08;98448.13;;;-0.68;64.13
26865;BME280;40618;51.166;10.322;2023-04-04T05:10:33;98454.03;;;-0.69;64.27
26865;BME280;40618;51.166;10.322;2023-04-04T05:12:59;98453.19;;;-0.70;64.34
26865;BME280;40618;51.166;10.322;2023-04-04T05:15:24;98452.34;;;-0.69;64.32
26865;BME280;40618;51.166;10.322;2023-04-04T05:17:53;98451.63;;;-0.64;64.34
26865;BME280;40618;51.166;10.322;2023-04-04T05:20:18;98450.91;;;-0.60;64.67
26865;BME280;40618;51.166;10.322;2023-04-04T05:22:45;98463.72;;;-0.57;64.60
26865;BME280;40618;51.166;10.322;2023-04-04T05:25:11;98460.44;;;-0.55;64.61
26865;BME280;40618;51.166;10.322;2023-04-04T05:27:38;98459.13;;;-0.69;63.86
26865;BME280;40618;51.166;10.322;2023-04-04T05:30:05;98465.53;;;-0.82;64.53
26865;BME280;40618;51.166;10.322;2023-04-04T05:32:32;98468.06;;;-0.82;64.69
26865;BME280;40618;51.166;10.322;2023-04-04T05:34:58;98468.28;;;-0.74;64.83
26865;BME280;40618;51.166;10.322;2023-04-04T05:37:24;98474.38;;;-0.69;64.79
26865;BME280;40618;51.166;10.322;2023-04-04T05:39:50;98472.03;;;-0.63;64.95
26865;BME280;40618;51.166;10.322;2023-04-04T05:42:15;98478.06;;;-0.59;64.90
26865;BME280;40618;51.166;10.322;2023-04-04T05:44:41;98477.44;;;-0.52;64.96
26865;BME280;40618;51.166;10.322;2023-04-04T05:47:07;98469.88;;;-0.50;65.30
26865;BME280;40618;51.166;10.322;2023-04-04T05:49:32;98479.16;;;-0.51;65.10
26865;BME280;40618;51.166;10.322;2023-04-04T05:51:58;98482.59;;;-0.50;65.13
26865;BME280;40618;51.166;10.322;2023-04-04T05:54:24;98484.34;;;-0.48;65.31
26865;BME280;40618;51.166;10.322;2023-04-04T05:56:49;98487.00;;;-0.45;64.90
26865;BME280;40618;51.166;10.322;2023-04-04T05:59:15;98492.91;;;-0.46;64.90
26865;BME280;40618;51.166;10.322;2023-04-04T06:01:40;98494.69;;;-0.43;65.16
26865;BME280;40618;51.166;10.322;2023-04-04T06:04:06;98496.47;;;-0.41;65.04
26865;BME280;40618;51.166;10.322;2023-04-04T06:06:32;98496.53;;;-0.38;64.83
26865;BME280;40618;51.166;10.322;2023-04-04T06:08:58;98500.88;;;-0.35;64.96
26865;BME280;40618;51.166;10.322;2023-04-04T06:11:24;98499.28;;;-0.31;64.79
26865;BME280;40618;51.166;10.322;2023-04-04T06:13:50;98509.56;;;-0.28;64.60
26865;BME280;40618;51.166;10.322;2023-04-04T06:16:17;98509.63;;;-0.25;64.80
26865;BME280;40618;51.166;10.322;2023-04-04T06:18:42;98510.59;;;-0.22;64.79
26865;BME280;40618;51.166;10.322;2023-04-04T06:21:08;98515.78;;;-0.19;64.81
26865;BME280;40618;51.166;10.322;2023-04-04T06:23:34;98512.53;;;-0.13;64.73
26865;BME280;40618;51.166;10.322;2023-04-04T06:26:02;98510.13;;;-0.08;65.06
26865;BME280;40618;51.166;10.322;2023-04-04T06:28:27;98511.84;;;-0.07;64.75
26865;BME280;40618;51.166;10.322;2023-04-04T06:30:53;98512.78;;;-0.05;64.53
26865;BME280;40618;51.166;10.322;2023-04-04T06:33:18;98520.38;;;-0.07;64.32
26865;BME280;40618;51.166;10.322;2023-04-04T06:35:44;98514.41;;;-0.07;64.67
26865;BME280;40618;51.166;10.322;2023-04-04T06:38:10;98514.44;;;-0.06;64.70
26865;BME280;40618;51.166;10.322;2023-04-04T06:40:35;98519.56;;;-0.04;64.29
26865;BME280;40618;51.166;10.322;2023-04-04T06:43:01;98517.94;;;-0.02;64.18
26865;BME280;40618;51.166;10.322;2023-04-04T06:45:27;98518.78;;;-0.02;64.29
26865;BME280;40618;51.166;10.322;2023-04-04T06:47:54;98517.09;;;-0.03;64.25
26865;BME280;40618;51.166;10.322;2023-04-04T06:50:20;98519.63;;;-0.03;64.36
26865;BME280;40618;51.166;10.322;2023-04-04T06:52:47;98522.06;;;-0.06;64.27
26865;BME280;40618;51.166;10.322;2023-04-04T06:55:14;98527.38;;;0.01;64.67
26865;BME280;40618;51.166;10.322;2023-04-04T06:57:40;98519.03;;;0.06;64.16
26865;BME280;40618;51.166;10.322;2023-04-04T07:00:07;98521.69;;;0.11;64.55
26865;BME280;40618;51.166;10.322;2023-04-04T07:02:34;98521.84;;;0.15;64.66
26865;BME280;40618;51.166;10.322;2023-04-04T07:05:00;98524.44;;;0.17;64.53
26865;BME280;40618;51.166;10.322;2023-04-04T07:07:27;98527.97;;;0.22;64.67
26865;BME280;40618;51.166;10.322;2023-04-04T07:09:54;98525.50;;;0.25;64.35
26865;BME280;40618;51.166;10.322;2023-04-04T07:12:20;98521.28;;;0.26;64.39
26865;BME280;40618;51.166;10.322;2023-04-04T07:14:46;98531.66;;;0.32;64.46
26865;BME280;40618;51.166;10.322;2023-04-04T07:17:12;98528.28;;;0.33;64.50
26865;BME280;40618;51.166;10.322;2023-04-04T07:19:37;98528.41;;;0.38;64.38
26865;BME280;40618;51.166;10.322;2023-04-04T07:22:03;98530.25;;;0.43;64.52
26865;BME280;40618;51.166;10.322;2023-04-04T07:24:28;98525.22;;;0.46;64.46
26865;BME280;40618;51.166;10.322;2023-04-04T07:26:54;98527.94;;;0.51;64.38
26865;BME280;40618;51.166;10.322;2023-04-04T07:29:20;98527.00;;;0.49;64.49
26865;BME280;40618;51.166;10.322;2023-04-04T07:31:46;98520.28;;;0.51;63.87
26865;BME280;40618;51.166;10.322;2023-04-04T07:34:12;98520.34;;;0.54;64.16
26865;BME280;40618;51.166;10.322;2023-04-04T07:36:38;98523.84;;;0.58;64.67
26865;BME280;40618;51.166;10.322;2023-04-04T07:39:04;98528.22;;;0.62;64.68
26865;BME280;40618;51.166;10.322;2023-04-04T07:41:29;98527.47;;;0.66;64.20
26865;BME280;40618;51.166;10.322;2023-04-04T07:43:55;98524.97;;;0.67;64.67
26865;BME280;40618;51.166;10.322;2023-04-04T07:46:21;98524.13;;;0.67;64.68
26865;BME280;40618;51.166;10.322;2023-04-04T07:48:47;98525.03;;;0.71;64.89
26865;BME280;40618;51.166;10.322;2023-04-04T07:51:12;98520.00;;;0.74;64.47
26865;BME280;40618;51.166;10.322;2023-04-04T07:53:39;98521.00;;;0.79;64.20
26865;BME280;40618;51.166;10.322;2023-04-04T07:56:04;98518.53;;;0.82;64.68
26865;BME280;40618;51.166;10.322;2023-04-04T07:58:34;98521.94;;;0.82;64.13
26865;BME280;40618;51.166;10.322;2023-04-04T08:01:01;98523.59;;;0.80;64.59
26865;BME280;40618;51.166;10.322;2023-04-04T08:03:28;98521.03;;;0.80;64.41
26865;BME280;40618;51.166;10.322;2023-04-04T08:05:53;98519.38;;;0.81;64.85
26865;BME280;40618;51.166;10.322;2023-04-04T08:08:19;98518.53;;;0.82;64.47
26865;BME280;40618;51.166;10.322;2023-04-04T08:10:45;98521.22;;;0.87;64.10
26865;BME280;40618;51.166;10.322;2023-04-04T08:13:14;98522.06;;;0.87;64.30
26865;BME280;40618;51.166;10.322;2023-04-04T08:15:39;98522.81;;;0.83;64.08
26865;BME280;40618;51.166;10.322;2023-04-04T08:18:05;98522.97;;;0.89;63.94
26865;BME280;40618;51.166;10.322;2023-04-04T08:20:31;98522.19;;;0.92;64.10
26865;BME280;40618;51.166;10.322;2023-04-04T08:22:57;98524.84;;;0.96;63.44
26865;BME280;40618;51.166;10.322;2023-04-04T08:25:23;98525.88;;;1.03;64.00
26865;BME280;40618;51.166;10.322;2023-04-04T08:27:49;98526.91;;;1.11;63.69
26865;BME280;40618;51.166;10.322;2023-04-04T08:30:15;98525.31;;;1.15;63.76
26865;BME280;40618;51.166;10.322;2023-04-04T08:32:41;98518.59;;;1.18;64.22
26865;BME280;40618;51.166;10.322;2023-04-04T08:35:08;98518.63;;;1.20;63.62
26865;BME280;40618;51.166;10.322;2023-04-04T08:37:34;98520.34;;;1.21;63.83
26865;BME280;40618;51.166;10.322;2023-04-04T08:40:01;98511.84;;;1.21;63.42
26865;BME280;40618;51.166;10.322;2023-04-04T08:42:29;98519.59;;;1.25;63.39
26865;BME280;40618;51.166;10.322;2023-04-04T08:45:00;98516.34;;;1.32;63.83
26865;BME280;40618;51.166;10.322;2023-04-04T08:47:31;98519.06;;;1.39;63.62
26865;BME280;40618;51.166;10.322;2023-04-04T08:50:03;98517.00;;;1.59;63.68
26865;BME280;40618;51.166;10.322;2023-04-04T08:52:30;98524.47;;;1.89;63.24
26865;BME280;40618;51.166;10.322;2023-04-04T08:54:57;98517.88;;;2.00;63.32
26865;BME280;40618;51.166;10.322;2023-04-04T08:57:22;98514.53;;;2.03;62.75
26865;BME280;40618;51.166;10.322;2023-04-04T08:59:48;98514.50;;;2.01;62.49
26865;BME280;40618;51.166;10.322;2023-04-04T09:02:41;98511.81;;;1.95;61.97
26865;BME280;40618;51.166;10.322;2023-04-04T09:05:22;98520.16;;;1.86;62.28
26865;BME280;40618;51.166;10.322;2023-04-04T09:07:49;98508.97;;;1.81;61.87
26865;BME280;40618;51.166;10.322;2023-04-04T09:10:15;98514.09;;;1.83;62.50
26865;BME280;40618;51.166;10.322;2023-04-04T09:12:43;98515.81;;;1.82;61.67
26865;BME280;40618;51.166;10.322;2023-04-04T09:15:11;98513.19;;;1.79;61.43
26865;BME280;40618;51.166;10.322;2023-04-04T09:17:38;98510.59;;;1.78;61.78
26865;BME280;40618;51.166;10.322;2023-04-04T09:20:41;98522.66;;;1.83;62.09
26865;BME280;40618;51.166;10.322;2023-04-04T09:23:10;98512.56;;;1.91;61.98
26865;BME280;40618;51.166;10.322;2023-04-04T09:25:47;98518.63;;;1.95;61.56
26865;BME280;40618;51.166;10.322;2023-04-04T09:28:14;98509.41;;;2.01;62.28
26865;BME280;40618;51.166;10.322;2023-04-04T09:30:41;98508.47;;;1.99;61.65
26865;BME280;40618;51.166;10.322;2023-04-04T09:33:10;98514.38;;;1.97;61.87
26865;BME280;40618;51.166;10.322;2023-04-04T09:35:45;98515.31;;;2.00;61.31
26865;BME280;40618;51.166;10.322;2023-04-04T09:38:16;98511.94;;;2.00;61.85
26865;BME280;40618;51.166;10.322;2023-04-04T09:40:43;98512.75;;;1.99;61.93
26865;BME280;40618;51.166;10.322;2023-04-04T09:43:10;98507.66;;;2.00;61.40
26865;BME280;40618;51.166;10.322;2023-04-04T09:45:39;98517.84;;;1.99;61.76
26865;BME280;40618;51.166;10.322;2023-04-04T09:48:06;98514.50;;;2.01;61.94
26865;BME280;40618;51.166;10.322;2023-04-04T09:50:36;98517.22;;;2.09;61.72
26865;BME280;40618;51.166;10.322;2023-04-04T09:53:15;98512.91;;;2.07;61.99
26865;BME280;40618;51.166;10.322;2023-04-04T09:55:52;98518.91;;;2.09;62.08
26865;BME280;40618;51.166;10.322;2023-04-04T09:58:26;98517.16;;;2.06;61.28
26865;BME280;40618;51.166;10.322;2023-04-04T10:00:59;98510.44;;;2.11;61.99
26865;BME280;40618;51.166;10.322;2023-04-04T10:03:28;98519.94;;;2.18;61.48
26865;BME280;40618;51.166;10.322;2023-04-04T10:08:28;98515.75;;;2.20;61.30
26865;BME280;40618;51.166;10.322;2023-04-04T10:10:58;98514.97;;;2.23;62.01
26865;BME280;40618;51.166;10.322;2023-04-04T10:13:27;98514.97;;;2.25;61.11
26865;BME280;40618;51.166;10.322;2023-04-04T10:16:01;98516.78;;;2.30;61.66
26865;BME280;40618;51.166;10.322;2023-04-04T10:18:33;98511.81;;;2.36;61.96
26865;BME280;40618;51.166;10.322;2023-04-04T10:21:01;98505.22;;;2.49;61.58
26865;BME280;40618;51.166;10.322;2023-04-04T10:23:29;98509.00;;;2.68;61.07
26865;BME280;40618;51.166;10.322;2023-04-04T10:25:56;98501.41;;;2.73;61.01
26865;BME280;40618;51.166;10.322;2023-04-04T10:28:23;98510.22;;;2.89;61.01
26865;BME280;40618;51.166;10.322;2023-04-04T10:31:05;98499.34;;;3.01;61.20
26865;BME280;40618;51.166;10.322;2023-04-04T10:33:58;98498.84;;;3.24;61.54
26865;BME280;40618;51.166;10.322;2023-04-04T10:36:39;98490.31;;;3.25;60.51
26865;BME280;40618;51.166;10.322;2023-04-04T10:41:49;98488.41;;;3.11;60.93
26865;BME280;40618;51.166;10.322;2023-04-04T10:44:31;98491.78;;;3.09;61.07
26865;BME280;40618;51.166;10.322;2023-04-04T10:49:43;98487.38;;;3.00;60.22
26865;BME280;40618;51.166;10.322;2023-04-04T10:52:12;98477.41;;;3.17;61.07
26865;BME280;40618;51.166;10.322;2023-04-04T10:54:43;98472.63;;;3.40;60.98
26865;BME280;40618;51.166;10.322;2023-04-04T10:57:10;98468.00;;;3.76;60.83
26865;BME280;40618;51.166;10.322;2023-04-04T11:02:43;98464.72;;;3.83;60.34
26865;BME280;40618;51.166;10.322;2023-04-04T11:05:30;98470.53;;;3.72;60.10
26865;BME280;40618;51.166;10.322;2023-04-04T11:08:01;98460.78;;;3.47;59.11
26865;BME280;40618;51.166;10.322;2023-04-04T11:10:32;98465.59;;;3.25;59.51
26865;BME280;40618;51.166;10.322;2023-04-04T11:13:09;98463.03;;;3.27;59.53
26865;BME280;40618;51.166;10.322;2023-04-04T11:15:50;98463.91;;;3.27;59.56
26865;BME280;40618;51.166;10.322;2023-04-04T11:18:19;98454.50;;;3.26;59.78
26865;BME280;40618;51.166;10.322;2023-04-04T11:20:46;98458.81;;;3.27;59.92
26865;BME280;40618;51.166;10.322;2023-04-04T11:23:20;98448.53;;;3.24;59.76
26865;BME280;40618;51.166;10.322;2023-04-04T11:28:46;98447.69;;;3.27;59.67
26865;BME280;40618;51.166;10.322;2023-04-04T11:39:14;98433.38;;;3.39;59.11
26865;BME280;40618;51.166;10.322;2023-04-04T11:42:06;98440.25;;;3.44;59.43
26865;BME280;40618;51.166;10.322;2023-04-04T11:47:22;98436.09;;;3.50;58.94
26865;BME280;40618;51.166;10.322;2023-04-04T11:49:49;98431.78;;;3.48;59.42
26865;BME280;40618;51.166;10.322;2023-04-04T11:52:17;98427.50;;;3.48;59.35
26865;BME280;40618;51.166;10.322;2023-04-04T11:54:45;98437.03;;;3.55;59.35
26865;BME280;40618;51.166;10.322;2023-04-04T11:57:18;98422.63;;;3.64;59.05
26865;BME280;40618;51.166;10.322;2023-04-04T11:59:47;98423.63;;;3.75;59.43
26865;BME280;40618;51.166;10.322;2023-04-04T12:02:17;98415.22;;;3.87;58.83
26865;BME280;40618;51.166;10.322;2023-04-04T12:04:45;98418.59;;;3.83;59.17
26865;BME280;40618;51.166;10.322;2023-04-04T12:07:12;98416.84;;;3.80;59.16
26865;BME280;40618;51.166;10.322;2023-04-04T12:09:39;98410.03;;;3.84;58.72
26865;BME280;40618;51.166;10.322;2023-04-04T12:12:07;98410.94;;;3.87;59.35
26865;BME280;40618;51.166;10.322;2023-04-04T12:14:38;98405.84;;;3.90;58.77
26865;BME280;40618;51.166;10.322;2023-04-04T12:17:04;98407.59;;;3.93;58.78
26865;BME280;40618;51.166;10.322;2023-04-04T12:19:35;98411.09;;;4.01;58.94
26865;BME280;40618;51.166;10.322;2023-04-04T12:22:03;98406.00;;;4.03;58.63
26865;BME280;40618;51.166;10.322;2023-04-04T12:24:30;98405.13;;;4.01;58.88
26865;BME280;40618;51.166;10.322;2023-04-04T12:26:56;98393.13;;;3.95;58.53
26865;BME280;40618;51.166;10.322;2023-04-04T12:29:24;98396.56;;;4.00;59.21
26865;BME280;40618;51.166;10.322;2023-04-04T12:31:54;98401.81;;;4.13;59.10
26865;BME280;40618;51.166;10.322;2023-04-04T12:34:31;98400.06;;;4.09;58.36
26865;BME280;40618;51.166;10.322;2023-04-04T12:37:00;98393.84;;;3.86;58.30
26865;BME280;40618;51.166;10.322;2023-04-04T12:39:26;98388.59;;;3.76;58.10
26865;BME280;40618;51.166;10.322;2023-04-04T12:41:56;98383.44;;;3.72;58.47
26865;BME280;40618;51.166;10.322;2023-04-04T12:44:37;98385.19;;;3.77;58.25
26865;BME280;40618;51.166;10.322;2023-04-04T12:47:05;98376.72;;;3.82;58.38
26865;BME280;40618;51.166;10.322;2023-04-04T12:49:44;98372.47;;;3.83;58.43
26865;BME280;40618;51.166;10.322;2023-04-04T12:52:17;98368.09;;;3.76;58.02
26865;BME280;40618;51.166;10.322;2023-04-04T12:54:48;98365.38;;;3.60;58.51
26865;BME280;40618;51.166;10.322;2023-04-04T12:57:21;98361.81;;;3.49;58.13
26865;BME280;40618;51.166;10.322;2023-04-04T12:59:49;98360.13;;;3.51;58.13
26865;BME280;40618;51.166;10.322;2023-04-04T13:02:20;98358.53;;;3.62;58.20
26865;BME280;40618;51.166;10.322;2023-04-04T13:04:51;98341.53;;;3.67;58.83
26865;BME280;40618;51.166;10.322;2023-04-04T13:07:35;98351.91;;;3.80;58.05
26865;BME280;40618;51.166;10.322;2023-04-04T13:10:10;98337.44;;;3.82;58.76
26865;BME280;40618;51.166;10.322;2023-04-04T13:12:55;98346.03;;;3.87;58.15
26865;BME280;40618;51.166;10.322;2023-04-04T13:18:21;98344.44;;;3.95;58.64
26865;BME280;40618;51.166;10.322;2023-04-04T13:20:50;98351.31;;;3.99;58.45
26865;BME280;40618;51.166;10.322;2023-04-04T13:23:18;98336.75;;;3.97;57.89
26865;BME280;40618;51.166;10.322;2023-04-04T13:25:44;98353.00;;;3.99;58.19
26865;BME280;40618;51.166;10.322;2023-04-04T13:28:10;98344.31;;;3.86;58.01
26865;BME280;40618;51.166;10.322;2023-04-04T13:30:37;98336.56;;;3.80;57.65